Time;durP1;ratioP1;P1;durP2;ratioP2;P2;SDS_P1;SDS_P2;PMS_P1;PMS_P2;Temp;Humidity;BMP_temperature;BMP_pressure;BME280_temperature;BME280_humidity;BME280_pressure;Samples;Min_cycle;Max_cycle;Signal;HPM_P1;HPM_P2
2023/05/20 00:02:33;;;;;;;0.90;0.60;;;;;;;;;;21073234;28;20212;-70
2023/05/20 00:12:35;;;;;;;1.23;0.53;;;;;;;;;;21072490;28;20217;-70
2023/05/20 00:22:37;;;;;;;0.70;0.60;;;;;;;;;;21072176;28;20236;-70
2023/05/20 00:32:38;;;;;;;0.70;0.57;;;;;;;;;;21071404;28;20204;-70
2023/05/20 00:42:41;;;;;;;2.00;0.90;;;;;;;;;;21062729;28;20217;-70
2023/05/20 00:52:44;;;;;;;2.83;0.60;;;;;;;;;;21051341;28;20208;-70
2023/05/20 01:02:45;;;;;;;2.87;0.80;;;;;;;;;;21068987;28;20571;-70
2023/05/20 01:12:48;;;;;;;1.60;0.80;;;;;;;;;;21067481;28;20246;-70
2023/05/20 01:22:55;;;;;;;1.10;0.60;;;17.20;99.90;;;;;;21068702;28;20265;-70
2023/05/20 01:33:01;;;;;;;1.30;0.60;;;;;;;;;;21066305;28;20212;-70
2023/05/20 01:43:05;;;;;;;1.63;0.63;;;;;;;;;;21071981;22;20270;-69
2023/05/20 01:53:08;;;;;;;1.50;0.70;;;;;;;;;;21013362;28;20217;-69
2023/05/20 02:03:10;;;;;;;2.27;0.80;;;;;;;;;;21022294;28;20286;-68
2023/05/20 02:13:14;;;;;;;1.77;0.70;;;;;;;;;;21034962;28;20223;-68
2023/05/20 02:23:16;;;;;;;1.10;0.50;;;;;;;;;;21049388;28;20228;-68
2023/05/20 02:33:21;;;;;;;0.63;0.50;;;;;;;;;;21065957;28;20212;-68
2023/05/20 02:43:23;;;;;;;1.93;0.90;;;;;;;;;;21031439;28;20788;-69
2023/05/20 02:53:24;;;;;;;1.20;0.50;;;;;;;;;;21031579;28;20900;-69
2023/05/20 03:03:26;;;;;;;0.97;0.50;;;;;;;;;;21029997;28;20269;-68
2023/05/20 03:13:28;;;;;;;1.17;0.53;;;;;;;;;;21011217;28;20213;-68
2023/05/20 03:23:30;;;;;;;1.07;0.67;;;;;;;;;;21020983;28;20224;-69
2023/05/20 03:33:33;;;;;;;1.30;0.73;;;;;;;;;;21027860;28;20216;-70
2023/05/20 03:43:35;;;;;;;1.33;0.80;;;;;;;;;;21026636;28;20270;-69
2023/05/20 03:53:37;;;;;;;0.90;0.60;;;;;;;;;;21041562;28;20225;-69
2023/05/20 04:03:42;;;;;;;2.50;0.80;;;;;;;;;;21025539;28;20224;-69
2023/05/20 04:13:45;;;;;;;1.37;0.90;;;;;;;;;;21021711;28;20217;-69
2023/05/20 04:23:47;;;;;;;2.33;0.93;;;;;;;;;;21013824;28;20228;-69
2023/05/20 04:33:49;;;;;;;1.13;0.70;;;;;;;;;;21043112;28;20265;-69
2023/05/20 04:43:52;;;;;;;1.07;0.70;;;;;;;;;;21055580;28;20263;-69
2023/05/20 04:53:54;;;;;;;1.73;0.80;;;;;;;;;;21022710;28;20236;-69
2023/05/20 05:03:56;;;;;;;1.30;0.70;;;;;;;;;;20956161;28;20242;-69
2023/05/20 05:13:58;;;;;;;0.93;0.70;;;;;;;;;;21004316;28;20213;-68
2023/05/20 05:24:01;;;;;;;1.97;0.90;;;;;;;;;;20978382;28;20220;-70
2023/05/20 05:34:03;;;;;;;1.43;0.93;;;;;;;;;;21036777;28;20670;-69
2023/05/20 05:44:05;;;;;;;1.07;0.70;;;;;;;;;;21042330;28;20224;-70
2023/05/20 05:54:07;;;;;;;1.97;0.73;;;;;;;;;;21011165;28;20227;-70
2023/05/20 06:04:10;;;;;;;2.63;0.80;;;;;;;;;;21003618;28;20248;-70
2023/05/20 06:14:12;;;;;;;1.80;0.80;;;;;;;;;;20995080;28;20663;-70
2023/05/20 06:24:14;;;;;;;1.20;0.70;;;;;;;;;;21023391;28;20240;-69
2023/05/20 06:34:17;;;;;;;1.43;1.00;;;;;;;;;;21006597;28;20297;-69
2023/05/20 06:44:19;;;;;;;1.40;0.80;;;;;;;;;;21033252;28;20236;-69
2023/05/20 06:54:47;;;;;;;1.67;0.90;;;;;;;;;;21027921;28;20294;-69
2023/05/20 07:04:50;;;;;;;1.23;0.87;;;;;;;;;;21019426;28;20290;-69
2023/05/20 07:14:52;;;;;;;1.27;0.90;;;;;;;;;;20992638;28;20244;-69
2023/05/20 07:24:54;;;;;;;1.73;1.03;;;;;;;;;;21015281;28;20309;-69
2023/05/20 07:34:56;;;;;;;1.40;0.97;;;;;;;;;;21042253;28;20216;-69
2023/05/20 07:44:58;;;;;;;1.60;1.10;;;;;;;;;;20992083;28;20244;-70
2023/05/20 07:55:00;;;;;;;2.77;1.40;;;;;;;;;;20989841;28;20278;-69
2023/05/20 08:05:03;;;;;;;1.97;1.07;;;;;;;;;;21025497;28;20305;-69
2023/05/20 08:15:06;;;;;;;3.20;1.30;;;;;;;;;;21003794;22;20296;-69
2023/05/20 08:25:08;;;;;;;1.47;1.03;;;;;;;;;;20875855;28;20206;-70
2023/05/20 08:35:10;;;;;;;1.87;1.00;;;;;;;;;;20875082;28;20215;-70
2023/05/20 08:45:12;;;;;;;1.60;1.10;;;;;;;;;;20801303;28;20227;-71
2023/05/20 08:55:21;;;;;;;2.13;1.13;;;19.90;99.90;;;;;;20851099;28;20207;-70
2023/05/20 09:05:23;;;;;;;2.03;1.23;;;;;;;;;;20874364;28;20772;-71
2023/05/20 09:15:25;;;;;;;4.93;1.37;;;;;;;;;;20899913;28;20230;-70
2023/05/20 09:25:27;;;;;;;2.17;1.30;;;;;;;;;;20899433;28;20236;-70
2023/05/20 09:35:29;;;;;;;1.40;1.00;;;;;;;;;;20898041;28;20232;-70
2023/05/20 09:45:32;;;;;;;2.30;1.20;;;;;;;;;;20899382;28;20235;-69
2023/05/20 09:55:34;;;;;;;4.77;1.70;;;;;;;;;;20898291;28;20242;-70
2023/05/20 10:05:41;;;;;;;1.90;1.30;;;;;;;;;;20876904;28;20226;-70
2023/05/20 10:15:49;;;;;;;1.70;1.30;;;;;;;;;;20847167;28;20229;-70
2023/05/20 10:25:52;;;;;;;2.57;1.40;;;;;;;;;;20904368;28;20220;-70
2023/05/20 10:35:57;;;;;;;3.73;1.57;;;21.40;99.90;;;;;;20900620;28;20245;-70
2023/05/20 10:45:59;;;;;;;1.67;1.27;;;;;;;;;;20891326;28;20223;-70
2023/05/20 10:56:00;;;;;;;1.60;1.13;;;;;;;;;;20889634;28;20232;-69
2023/05/20 11:06:10;;;;;;;2.60;1.40;;;;;;;;;;20825630;28;20218;-70
2023/05/20 11:16:11;;;;;;;1.10;0.80;;;;;;;;;;20842556;28;20758;-70
2023/05/20 11:26:14;;;;;;;2.97;1.60;;;;;;;;;;20904322;28;20241;-69
2023/05/20 11:36:16;;;;;;;1.83;1.10;;;;;;;;;;20903259;28;20600;-70
2023/05/20 11:46:20;;;;;;;4.03;1.40;;;;;;;;;;20906551;28;20248;-70
2023/05/20 11:56:22;;;;;;;2.47;1.13;;;;;;;;;;20898066;28;20271;-70
2023/05/20 12:06:23;;;;;;;2.00;1.40;;;;;;;;;;20903599;28;20216;-70
2023/05/20 12:16:25;;;;;;;1.70;1.30;;;;;;;;;;20896418;28;20228;-70
2023/05/20 12:26:27;;;;;;;4.53;1.33;;;;;;;;;;20920878;28;20598;-70
2023/05/20 12:36:30;;;;;;;1.70;1.10;;;;;;;;;;20902984;28;20231;-70
2023/05/20 12:46:31;;;;;;;1.73;1.33;;;;;;;;;;20898234;28;20229;-71
2023/05/20 12:56:33;;;;;;;1.97;1.40;;;;;;;;;;20899239;28;20214;-71
2023/05/20 13:06:35;;;;;;;1.70;1.30;;;;;;;;;;20898393;28;20702;-71
2023/05/20 13:16:37;;;;;;;1.53;1.13;;;22.80;99.90;;;;;;20884786;28;20238;-70
2023/05/20 13:26:40;;;;;;;3.35;2.55;;;;;;;;;;20817125;28;20704;-70
2023/05/20 13:36:41;;;;;;;5.15;1.77;;;;;;;;;;20815213;28;20219;-70
2023/05/20 13:46:43;;;;;;;2.63;1.53;;;;;;;;;;20879043;28;20217;-70
2023/05/20 13:56:45;;;;;;;1.77;1.30;;;;;;;;;;20907221;28;20680;-71
2023/05/20 14:06:47;;;;;;;3.75;1.50;;;;;;;;;;20913307;28;20236;-71
2023/05/20 14:16:49;;;;;;;1.80;1.50;;;;;;;;;;21059182;22;20218;-72
2023/05/20 14:26:50;;;;;;;1.70;1.40;;;;;;;;;;21012092;28;20251;-72
2023/05/20 14:36:52;;;;;;;2.63;1.40;;;;;;;;;;21028661;28;20205;-71
2023/05/20 14:46:54;;;;;;;3.67;1.40;;;;;;;;;;21026527;28;20238;-71
2023/05/20 14:56:56;;;;;;;1.75;1.10;;;;;;;;;;21026024;28;20632;-71
2023/05/20 15:06:58;;;;;;;2.95;1.80;;;;;;;;;;21042067;28;20811;-70
2023/05/20 15:17:00;;;;;;;1.95;1.40;;;;;;;;;;21024112;28;20283;-71
2023/05/20 15:27:02;;;;;;;2.30;1.50;;;;;;;;;;21023360;28;20228;-71
2023/05/20 15:37:04;;;;;;;2.65;1.75;;;;;;;;;;21040170;28;20222;-71
2023/05/20 15:47:06;;;;;;;3.78;1.67;;;;;;;;;;21022040;28;20248;-72
2023/05/20 15:57:08;;;;;;;3.83;1.58;;;;;;;;;;21021536;28;20208;-71
2023/05/20 16:07:10;;;;;;;2.92;1.95;;;;;;;;;;21020930;28;20222;-71
2023/05/20 16:17:12;;;;;;;2.50;1.85;;;;;;;;;;21019356;28;20216;-71
2023/05/20 16:27:14;;;;;;;3.08;2.15;;;;;;;;;;21017744;28;20282;-71
2023/05/20 16:37:16;;;;;;;3.25;2.30;;;;;;;;;;21016836;28;20758;-71
2023/05/20 16:47:18;;;;;;;3.60;2.00;;;;;;;;;;21015930;28;20772;-72
2023/05/20 16:57:20;;;;;;;5.35;2.28;;;;;;;;;;21014749;28;20272;-72
2023/05/20 17:07:22;;;;;;;2.58;1.83;;;;;;;;;;21015761;28;20222;-71
2023/05/20 17:17:24;;;;;;;3.13;1.98;;;;;;;;;;21031666;28;20572;-71
2023/05/20 17:27:26;;;;;;;2.25;1.77;;;;;;;;;;20947972;28;20709;-72
2023/05/20 17:37:28;;;;;;;2.45;1.75;;;;;;;;;;21028900;28;21181;-71
2023/05/20 17:47:30;;;;;;;2.75;1.95;;;;;;;;;;21029890;28;20269;-71
2023/05/20 17:57:32;;;;;;;3.30;2.35;;;;;;;;;;21030051;28;20670;-71
2023/05/20 18:07:36;;;;;;;2.57;1.80;;;;;;;;;;21013984;28;20783;-71
2023/05/20 18:17:38;;;;;;;3.23;2.30;;;;;;;;;;21012525;28;20584;-71
2023/05/20 18:27:41;;;;;;;2.83;1.80;;;22.00;99.90;;;;;;21025323;28;20575;-71
2023/05/20 18:37:42;;;;;;;3.83;2.07;;;;;;;;;;21007962;28;20712;-71
2023/05/20 18:47:44;;;;;;;2.80;2.10;;;;;;;;;;21098361;28;20272;-71
2023/05/20 18:57:46;;;;;;;3.27;2.07;;;;;;;;;;21016943;28;20234;-71
2023/05/20 19:07:48;;;;;;;3.87;2.13;;;;;;;;;;21032774;28;20296;-71
2023/05/20 19:17:51;;;;;;;3.03;2.20;;;;;;;;;;21012824;28;20239;-72
2023/05/20 19:27:53;;;;;;;3.07;2.33;;;;;;;;;;21003431;28;20216;-71
2023/05/20 19:37:54;;;;;;;3.33;2.20;;;;;;;;;;21028633;28;20215;-71
2023/05/20 19:47:56;;;;;;;2.77;2.23;;;;;;;;;;21010737;28;20477;-72
2023/05/20 19:57:58;;;;;;;2.77;2.30;;;;;;;;;;20997641;28;20272;-72
2023/05/20 20:08:00;;;;;;;3.33;2.13;;;;;;;;;;20916149;28;20230;-71
2023/05/20 20:18:02;;;;;;;2.90;2.40;;;;;;;;;;20991928;28;20250;-72
2023/05/20 20:28:07;;;;;;;8.03;2.50;;;;;;;;;;20966223;22;20223;-69
2023/05/20 20:38:08;;;;;;;3.40;2.67;;;;;;;;;;20986442;28;20208;-69
2023/05/20 20:48:16;;;;;;;3.67;2.53;;;20.50;99.90;;;;;;20988531;28;20228;-69
2023/05/20 20:58:19;;;;;;;3.20;2.47;;;;;;;;;;20984006;28;20628;-70
2023/05/20 21:08:26;;;;;;;4.03;2.97;;;;;;;;;;20984564;28;20547;-70
2023/05/20 21:18:28;;;;;;;5.40;2.67;;;;;;;;;;20983893;28;20270;-70
2023/05/20 21:28:31;;;;;;;3.77;3.00;;;;;;;;;;20948912;28;20282;-69
2023/05/20 21:38:33;;;;;;;6.30;3.07;;;;;;;;;;20963325;28;20220;-68
2023/05/20 21:48:35;;;;;;;5.53;3.20;;;;;;;;;;20982175;28;20240;-68
2023/05/20 21:58:39;;;;;;;4.10;3.13;;;;;;;;;;20980933;28;20563;-68
2023/05/20 22:08:41;;;;;;;4.33;3.20;;;;;;;;;;20981058;28;20297;-71
2023/05/20 22:18:46;;;;;;;4.53;3.17;;;;;;;;;;20980663;28;20208;-69
2023/05/20 22:28:48;;;;;;;6.77;3.63;;;;;;;;;;20995500;28;20250;-68
2023/05/20 22:38:50;;;;;;;4.70;3.37;;;;;;;;;;20997772;28;20761;-68
2023/05/20 22:48:53;;;;;;;4.53;3.30;;;;;;;;;;20978109;28;20640;-68
2023/05/20 22:58:54;;;;;;;5.40;3.57;;;;;;;;;;20996900;28;20216;-68
2023/05/20 23:08:56;;;;;;;5.17;3.23;;;;;;;;;;20996189;28;20223;-69
2023/05/20 23:18:58;;;;;;;4.10;3.27;;;;;;;;;;20995846;28;20491;-68
2023/05/20 23:29:00;;;;;;;3.90;2.93;;;;;;;;;;20975038;28;20249;-68
2023/05/20 23:39:02;;;;;;;5.10;3.20;;;;;;;;;;20992501;28;20233;-70
2023/05/20 23:49:03;;;;;;;4.67;3.30;;;;;;;;;;20992358;28;20229;-69
2023/05/20 23:59:06;;;;;;;4.30;3.00;;;;;;;;;;20992386;28;20278;-69
